createdAt,value
2019-06-01T00:03:20.921Z,74.84
2019-06-01T00:07:24.423Z,75.11
2019-06-01T00:11:28.006Z,75.89
2019-06-01T00:15:31.447Z,76.14
2019-06-01T00:19:35.045Z,76.17
2019-06-01T00:23:40.292Z,75.94
2019-06-01T00:27:44.693Z,76.17
2019-06-01T00:31:49.820Z,76.79
2019-06-01T00:35:53.373Z,76.65
2019-06-01T00:39:56.864Z,77.44
2019-06-01T00:44:00.356Z,76.61
2019-06-01T00:48:03.859Z,76.17
2019-06-01T00:52:07.701Z,75.59
2019-06-01T00:56:11.212Z,76.55
2019-06-01T01:00:15.338Z,76.40
2019-06-01T01:04:19.049Z,76.36
2019-06-01T01:08:22.543Z,76.34
2019-06-01T01:12:29.073Z,76.63
2019-06-01T01:16:32.658Z,77.05
2019-06-01T01:20:37.808Z,77.64
2019-06-01T01:24:41.323Z,77.73
2019-06-01T01:28:45.146Z,77.27
2019-06-01T01:32:49.487Z,76.95
2019-06-01T01:36:54.276Z,75.89
2019-06-01T01:40:59.400Z,77.14
2019-06-01T01:45:03.156Z,77.89
2019-06-01T01:49:06.797Z,74.57
2019-06-01T01:53:10.393Z,76.60
2019-06-01T01:57:13.890Z,78.34
2019-06-01T02:01:22.725Z,76.31
2019-06-01T02:05:23.061Z,78.26
2019-06-01T02:09:26.918Z,77.72
2019-06-01T02:13:30.391Z,78.03
2019-06-01T02:17:34.338Z,77.70
2019-06-01T02:21:37.850Z,75.88
2019-06-01T02:25:41.361Z,78.79
2019-06-01T02:29:45.189Z,78.89
2019-06-01T02:33:48.690Z,76.36
2019-06-01T02:37:52.191Z,76.76
2019-06-01T02:41:56.789Z,75.37
2019-06-01T02:46:02.776Z,76.03
2019-06-01T02:50:08.537Z,77.94
2019-06-01T02:54:12.065Z,78.72
2019-06-01T02:58:15.532Z,76.75
2019-06-01T03:02:19.264Z,78.18
2019-06-01T03:06:23.127Z,76.50
2019-06-01T03:10:27.269Z,77.33
2019-06-01T03:14:34.720Z,77.14
2019-06-01T03:18:40.651Z,78.48
2019-06-01T03:22:44.216Z,79.17
2019-06-01T03:26:47.940Z,77.05
2019-06-01T03:30:51.433Z,76.79
2019-06-01T03:34:54.942Z,78.19
2019-06-01T03:38:59.870Z,77.52
2019-06-01T03:43:04.688Z,76.76
2019-06-01T03:47:08.229Z,79.46
2019-06-01T03:51:12.051Z,79.44
2019-06-01T03:55:15.651Z,79.31
2019-06-01T03:59:19.107Z,79.44
2019-06-01T04:03:22.944Z,77.54
2019-06-01T04:07:26.503Z,77.59
2019-06-01T04:11:30.318Z,78.18
2019-06-01T04:15:34.112Z,77.75
2019-06-01T04:19:37.652Z,78.15
2019-06-01T04:23:41.469Z,75.89
2019-06-01T04:27:44.974Z,76.11
2019-06-01T04:31:48.642Z,77.67
2019-06-01T04:35:52.143Z,77.84
2019-06-01T04:39:59.064Z,77.62
2019-06-01T04:44:03.752Z,78.13
2019-06-01T04:48:08.401Z,77.98
2019-06-01T04:52:13.459Z,78.12
2019-06-01T04:56:17.030Z,78.08
2019-06-01T05:00:27.309Z,77.82
2019-06-01T05:04:26.285Z,78.33
2019-06-01T05:08:30.095Z,78.17
2019-06-01T05:12:33.775Z,78.42
2019-06-01T05:16:37.268Z,77.70
2019-06-01T05:20:42.201Z,77.04
2019-06-01T05:24:45.770Z,76.54
2019-06-01T05:28:49.276Z,74.16
2019-06-01T05:32:52.772Z,73.45
2019-06-01T05:36:56.263Z,72.53
2019-06-01T05:40:59.748Z,72.43
2019-06-01T05:45:03.498Z,72.59
2019-06-01T05:49:07.363Z,70.86
2019-06-01T05:53:10.943Z,71.42
2019-06-01T05:57:14.739Z,71.47
2019-06-01T06:01:19.600Z,69.39
2019-06-01T06:05:23.173Z,69.31
2019-06-01T06:09:27.094Z,68.23
2019-06-01T06:13:30.900Z,66.75
2019-06-01T06:17:34.411Z,63.94
2019-06-01T06:21:37.986Z,61.48
2019-06-01T06:25:41.876Z,60.09
2019-06-01T06:29:45.358Z,59.50
2019-06-01T06:33:56.366Z,59.22
2019-06-01T06:37:55.085Z,61.07
2019-06-01T06:41:58.629Z,59.72
2019-06-01T06:46:02.112Z,58.14
2019-06-01T06:50:07.126Z,59.08
2019-06-01T06:54:10.656Z,57.75
2019-06-01T06:58:14.285Z,55.09
2019-06-01T07:02:18.742Z,53.66
2019-06-01T07:06:23.566Z,53.47
2019-06-01T07:10:28.263Z,52.98
2019-06-01T07:14:31.789Z,52.71
2019-06-01T07:18:35.422Z,50.47
2019-06-01T07:22:38.902Z,44.86
2019-06-01T07:26:42.710Z,38.38
2019-06-01T07:30:50.319Z,35.63
2019-06-01T07:34:52.084Z,36.02
2019-06-01T07:38:55.644Z,33.87
2019-06-01T07:42:59.136Z,31.46
2019-06-01T07:47:02.614Z,31.46
2019-06-01T07:51:06.221Z,31.13
2019-06-01T07:55:10.150Z,30.47
2019-06-01T07:59:13.978Z,30.30
2019-06-01T08:03:22.410Z,30.64
2019-06-01T08:07:26.479Z,32.03
2019-06-01T08:11:33.441Z,29.86
2019-06-01T08:15:37.035Z,30.22
2019-06-01T08:19:40.521Z,30.06
2019-06-01T08:23:44.362Z,28.84
2019-06-01T08:27:47.853Z,30.58
2019-06-01T08:31:55.593Z,34.35
2019-06-01T08:35:56.810Z,32.06
2019-06-01T08:40:00.293Z,30.47
2019-06-01T08:44:04.382Z,29.87
2019-06-01T08:48:07.849Z,28.96
2019-06-01T08:52:11.344Z,27.55
2019-06-01T08:56:14.833Z,27.09
2019-06-01T09:00:18.490Z,29.43
2019-06-01T09:04:22.276Z,28.59
2019-06-01T09:08:27.032Z,30.38
2019-06-01T09:12:31.394Z,33.33
2019-06-01T09:16:36.034Z,33.82
2019-06-01T09:20:39.594Z,34.36
2019-06-01T09:24:43.375Z,32.13
2019-06-01T09:28:46.848Z,32.65
2019-06-01T09:32:50.393Z,32.38
2019-06-01T09:36:55.650Z,32.13
2019-06-01T09:40:59.129Z,30.14
2019-06-01T09:45:02.690Z,28.27
2019-06-01T09:49:06.167Z,28.70
2019-06-01T09:53:10.064Z,25.85
2019-06-01T09:57:13.512Z,27.50
2019-06-01T10:01:17.014Z,28.68
2019-06-01T10:05:20.797Z,28.33
2019-06-01T10:09:24.553Z,27.14
2019-06-01T10:13:28.039Z,27.72
2019-06-01T10:17:33.209Z,28.22
2019-06-01T10:21:37.953Z,25.63
2019-06-01T10:25:42.655Z,25.12
2019-06-01T10:29:46.192Z,26.96
2019-06-01T10:33:51.655Z,26.54
2019-06-01T10:37:54.886Z,27.05
2019-06-01T10:41:58.376Z,25.01
2019-06-01T10:46:01.877Z,26.12
2019-06-01T10:50:09.297Z,27.00
2019-06-01T10:54:13.036Z,25.70
2019-06-01T10:58:16.527Z,27.76
2019-06-01T11:02:20.017Z,28.77
2019-06-01T11:06:36.690Z,26.67
2019-06-01T11:10:28.997Z,29.82
2019-06-01T11:14:32.923Z,30.65
2019-06-01T11:18:37.486Z,32.58
2019-06-01T11:22:41.552Z,33.32
2019-06-01T11:26:45.477Z,34.80
2019-06-01T11:30:49.034Z,34.60
2019-06-01T11:34:52.531Z,35.67
2019-06-01T11:38:56.449Z,35.64
2019-06-01T11:42:59.926Z,35.21
2019-06-01T11:47:03.710Z,36.48
2019-06-01T11:51:07.222Z,38.01
2019-06-01T11:55:11.057Z,37.14
2019-06-01T11:59:14.548Z,36.55
2019-06-01T12:03:18.050Z,37.05
2019-06-01T12:07:21.540Z,37.29
2019-06-01T12:11:25.062Z,36.12
2019-06-01T12:15:28.673Z,35.94
2019-06-01T12:19:32.187Z,38.54
2019-06-01T12:23:37.121Z,39.18
2019-06-01T12:27:41.552Z,39.57
2019-06-01T12:31:46.538Z,36.89
2019-06-01T12:35:50.109Z,37.34
2019-06-01T12:39:54.387Z,39.61
2019-06-01T12:44:13.957Z,38.02
2019-06-01T12:48:17.731Z,37.17
2019-06-01T12:52:21.496Z,37.29
2019-06-01T12:56:25.313Z,36.88
2019-06-01T13:00:28.958Z,37.36
2019-06-01T13:04:32.455Z,36.78
2019-06-01T13:08:35.963Z,34.86
2019-06-01T13:12:41.085Z,35.50
2019-06-01T13:16:52.882Z,36.73
2019-06-01T13:20:49.857Z,36.49
2019-06-01T13:24:53.341Z,38.69
2019-06-01T13:28:57.207Z,37.87
2019-06-01T13:33:00.714Z,37.66
2019-06-01T13:37:04.663Z,38.89
2019-06-01T13:41:08.555Z,35.63
2019-06-01T13:45:12.269Z,37.65
2019-06-01T13:49:15.749Z,37.03
2019-06-01T13:53:20.082Z,37.36
2019-06-01T13:57:24.593Z,36.33
2019-06-01T14:01:28.369Z,36.75
2019-06-01T14:05:31.843Z,36.71
2019-06-01T14:09:35.372Z,34.94
2019-06-01T14:13:38.871Z,38.37
2019-06-01T14:17:42.758Z,36.73
2019-06-01T14:21:47.635Z,37.69
2019-06-01T14:25:52.157Z,37.47
2019-06-01T14:29:56.491Z,36.04
2019-06-01T14:34:00.456Z,35.49
2019-06-01T14:38:04.029Z,35.69
2019-06-01T14:42:07.898Z,37.49
2019-06-01T14:46:11.819Z,35.54
2019-06-01T14:50:15.942Z,38.13
2019-06-01T14:54:19.449Z,36.64
2019-06-01T14:58:22.957Z,36.71
2019-06-01T15:02:26.506Z,36.44
2019-06-01T15:06:30.021Z,37.83
2019-06-01T15:10:33.530Z,40.07
2019-06-01T15:14:37.034Z,39.56
2019-06-01T15:18:40.555Z,39.48
2019-06-01T15:22:44.470Z,41.18
2019-06-01T15:26:47.962Z,41.46
2019-06-01T15:30:52.763Z,41.02
2019-06-01T15:34:56.704Z,41.15
2019-06-01T15:39:00.215Z,39.39
2019-06-01T15:43:03.793Z,41.87
2019-06-01T15:47:07.610Z,41.11
2019-06-01T15:51:11.564Z,42.21
2019-06-01T15:55:15.096Z,40.27
2019-06-01T15:59:18.580Z,42.53
2019-06-01T16:03:22.111Z,41.67
2019-06-01T16:07:25.615Z,42.73
2019-06-01T16:11:29.135Z,42.59
2019-06-01T16:15:35.727Z,43.06
2019-06-01T16:19:39.556Z,42.90
2019-06-01T16:23:49.977Z,42.25
2019-06-01T16:27:48.720Z,42.26
2019-06-01T16:31:52.297Z,43.21
2019-06-01T16:35:56.918Z,42.10
2019-06-01T16:40:05.086Z,42.86
2019-06-01T16:44:07.067Z,44.04
2019-06-01T16:48:10.679Z,44.99
2019-06-01T16:52:14.305Z,43.05
2019-06-01T16:56:18.122Z,44.57
2019-06-01T17:00:21.754Z,44.09
2019-06-01T17:04:25.268Z,45.79
2019-06-01T17:08:29.012Z,46.22
2019-06-01T17:12:33.471Z,46.08
2019-06-01T17:16:37.312Z,45.90
2019-06-01T17:20:52.054Z,46.59
2019-06-01T17:24:55.641Z,45.87
2019-06-01T17:29:00.038Z,47.25
2019-06-01T17:33:04.382Z,44.70
2019-06-01T17:37:08.968Z,47.11
2019-06-01T17:41:12.752Z,48.26
2019-06-01T17:45:16.572Z,47.00
2019-06-01T17:49:20.084Z,48.07
2019-06-01T17:53:23.857Z,48.64
2019-06-01T17:57:27.733Z,49.35
2019-06-01T18:01:31.309Z,50.13
2019-06-01T18:05:35.628Z,51.92
2019-06-01T18:09:39.462Z,52.63
2019-06-01T18:13:43.376Z,53.94
2019-06-01T18:17:47.279Z,54.03
2019-06-01T18:21:55.650Z,55.85
2019-06-01T18:25:59.203Z,55.27
2019-06-01T18:30:03.467Z,55.83
2019-06-01T18:34:09.597Z,56.15
2019-06-01T18:38:14.826Z,57.17
2019-06-01T18:42:21.242Z,57.82
2019-06-01T18:46:24.805Z,58.78
2019-06-01T18:50:28.534Z,58.81
2019-06-01T18:54:32.090Z,59.10
2019-06-01T18:58:36.034Z,59.11
2019-06-01T19:02:39.678Z,59.79
2019-06-01T19:06:43.143Z,59.80
2019-06-01T19:10:47.728Z,60.50
2019-06-01T19:14:52.131Z,61.40
2019-06-01T19:18:55.636Z,61.19
2019-06-01T19:22:59.138Z,62.06
2019-06-01T19:27:02.714Z,62.64
2019-06-01T19:31:06.781Z,63.34
2019-06-01T19:35:11.685Z,63.99
2019-06-01T19:39:17.384Z,64.11
2019-06-01T19:43:21.324Z,64.70
2019-06-01T19:47:24.917Z,64.42
2019-06-01T19:51:28.411Z,63.22
2019-06-01T19:55:31.954Z,63.59
2019-06-01T19:59:35.790Z,63.49
2019-06-01T20:03:39.598Z,64.59
2019-06-01T20:07:43.086Z,66.15
2019-06-01T20:12:00.961Z,66.91
2019-06-01T20:15:51.903Z,67.72
2019-06-01T20:19:55.383Z,67.75
2019-06-01T20:23:58.987Z,68.02
2019-06-01T20:28:02.824Z,67.87
2019-06-01T20:32:06.486Z,67.92
2019-06-01T20:36:10.415Z,67.93
2019-06-01T20:40:16.281Z,67.75
2019-06-01T20:44:20.946Z,68.25
2019-06-01T20:48:24.619Z,68.40
2019-06-01T20:52:28.780Z,68.54
2019-06-01T20:56:32.272Z,68.47
2019-06-01T21:00:35.772Z,68.47
2019-06-01T21:04:39.549Z,68.38
2019-06-01T21:08:43.056Z,68.82
2019-06-01T21:12:46.592Z,68.86
2019-06-01T21:16:50.309Z,69.21
2019-06-01T21:20:54.207Z,69.07
2019-06-01T21:24:57.692Z,69.28
2019-06-01T21:29:01.270Z,70.38
2019-06-01T21:33:04.834Z,70.20
2019-06-01T21:37:08.395Z,70.33
2019-06-01T21:41:12.207Z,70.05
2019-06-01T21:45:15.885Z,70.53
2019-06-01T21:49:20.379Z,71.89
2019-06-01T21:53:24.554Z,72.03
2019-06-01T21:57:29.151Z,72.34
2019-06-01T22:01:32.805Z,72.45
2019-06-01T22:05:36.606Z,72.37
2019-06-01T22:09:40.635Z,72.59
2019-06-01T22:13:44.150Z,72.57
2019-06-01T22:17:47.642Z,72.17
2019-06-01T22:21:51.389Z,72.03
2019-06-01T22:25:55.162Z,71.28
2019-06-01T22:29:58.791Z,72.18
2019-06-01T22:34:02.300Z,72.54
2019-06-01T22:38:05.810Z,72.84
2019-06-01T22:42:09.841Z,72.13
2019-06-01T22:46:13.329Z,72.00
2019-06-01T22:50:17.066Z,72.44
2019-06-01T22:54:21.076Z,73.04
2019-06-01T22:58:25.319Z,72.47
2019-06-01T23:02:29.824Z,71.92
2019-06-01T23:06:33.477Z,72.13
2019-06-01T23:10:36.970Z,72.51
2019-06-01T23:14:40.489Z,72.52
2019-06-01T23:18:44.007Z,72.37
2019-06-01T23:22:47.503Z,70.39
2019-06-01T23:26:51.049Z,70.82
2019-06-01T23:30:54.823Z,73.30
2019-06-01T23:34:58.793Z,73.42
2019-06-01T23:39:02.285Z,73.82
2019-06-01T23:43:06.135Z,74.38
2019-06-01T23:47:09.964Z,74.32
2019-06-01T23:51:13.586Z,73.93
2019-06-01T23:55:17.085Z,73.95
2019-06-01T23:59:20.564Z,74.12
